createdAt,value
2018-08-22T00:00:50.097Z,73.3
2018-08-22T00:02:50.075Z,72.9
2018-08-22T00:04:50.484Z,72.9
2018-08-22T00:06:50.694Z,72.8
2018-08-22T00:08:50.955Z,73.0
2018-08-22T00:10:50.761Z,73.3
2018-08-22T00:12:50.756Z,73.7
2018-08-22T00:14:49.773Z,73.7
2018-08-22T00:16:50.043Z,74.1
2018-08-22T00:18:50.179Z,74.3
2018-08-22T00:20:50.192Z,74.3
2018-08-22T00:22:50.226Z,74.3
2018-08-22T00:24:50.227Z,74.4
2018-08-22T00:26:50.368Z,74.4
2018-08-22T00:28:50.333Z,74.7
2018-08-22T00:30:50.293Z,75.2
2018-08-22T00:32:50.264Z,75.1
2018-08-22T00:34:50.448Z,75.1
2018-08-22T00:36:50.693Z,75.3
2018-08-22T00:38:49.810Z,75.5
2018-08-22T00:40:50.750Z,75.7
2018-08-22T00:42:50.754Z,75.7
2018-08-22T00:44:50.713Z,75.6
2018-08-22T00:46:49.905Z,76.1
2018-08-22T00:48:49.861Z,76.3
2018-08-22T00:50:49.905Z,76.5
2018-08-22T00:52:50.132Z,76.6
2018-08-22T00:54:50.162Z,76.6
2018-08-22T00:56:50.332Z,77.1
2018-08-22T00:58:50.323Z,77.3
2018-08-22T01:00:50.442Z,77.6
2018-08-22T01:02:50.489Z,77.7
2018-08-22T01:04:49.947Z,78.2
2018-08-22T01:06:50.149Z,78.4
2018-08-22T01:08:50.118Z,78.8
2018-08-22T01:10:50.139Z,78.8
2018-08-22T01:12:50.143Z,78.8
2018-08-22T01:14:50.098Z,79.0
2018-08-22T01:16:50.207Z,79.4
2018-08-22T01:18:50.192Z,79.3
2018-08-22T01:20:50.192Z,79.7
2018-08-22T01:22:50.314Z,79.3
2018-08-22T01:24:50.329Z,79.7
2018-08-22T01:26:50.596Z,79.6
2018-08-22T01:28:50.618Z,79.6
2018-08-22T01:30:49.905Z,80.1
2018-08-22T01:32:49.982Z,80.2
2018-08-22T01:34:50.378Z,80.1
2018-08-22T01:36:50.578Z,80.5
2018-08-22T01:38:50.547Z,80.7
2018-08-22T01:40:50.561Z,80.7
2018-08-22T01:42:50.564Z,81.0
2018-08-22T01:44:50.531Z,81.0
2018-08-22T01:46:50.678Z,81.1
2018-08-22T01:48:50.602Z,81.3
2018-08-22T01:50:50.633Z,81.4
2018-08-22T01:52:50.594Z,81.4
2018-08-22T01:54:50.590Z,81.4
2018-08-22T01:56:49.853Z,81.4
2018-08-22T01:58:50.355Z,81.5
2018-08-22T02:00:50.574Z,81.3
2018-08-22T02:02:50.567Z,81.3
2018-08-22T02:04:50.042Z,81.3
2018-08-22T02:06:50.130Z,81.2
2018-08-22T02:08:50.511Z,81.2
2018-08-22T02:10:50.562Z,81.2
2018-08-22T02:12:50.721Z,81.0
2018-08-22T02:14:50.743Z,81.0
2018-08-22T02:16:49.926Z,80.9
2018-08-22T02:18:49.923Z,80.9
2018-08-22T02:20:50.120Z,81.0
2018-08-22T02:22:50.044Z,81.3
2018-08-22T02:24:49.998Z,81.5
2018-08-22T02:26:50.038Z,81.7
2018-08-22T02:28:50.045Z,82.1
2018-08-22T02:30:50.035Z,82.1
2018-08-22T02:32:50.002Z,82.2
2018-08-22T02:34:50.266Z,82.2
2018-08-22T02:36:50.415Z,82.5
2018-08-22T02:38:50.442Z,82.5
2018-08-22T02:40:50.600Z,82.5
2018-08-22T02:42:50.570Z,82.5
2018-08-22T02:44:50.650Z,82.6
2018-08-22T02:46:50.768Z,82.4
2018-08-22T02:48:50.742Z,82.6
2018-08-22T02:50:49.886Z,82.8
2018-08-22T02:52:49.877Z,82.8
2018-08-22T02:54:50.092Z,83.2
2018-08-22T02:56:50.238Z,83.2
2018-08-22T02:58:50.211Z,83.1
2018-08-22T03:00:50.209Z,83.1
2018-08-22T03:02:50.237Z,83.2
2018-08-22T03:04:50.547Z,83.2
2018-08-22T03:06:49.829Z,83.3
2018-08-22T03:08:49.882Z,83.3
2018-08-22T03:10:49.938Z,83.3
2018-08-22T03:12:49.919Z,83.5
2018-08-22T03:14:49.963Z,83.3
2018-08-22T03:16:50.191Z,83.2
2018-08-22T03:18:50.161Z,83.3
2018-08-22T03:20:50.175Z,83.2
2018-08-22T03:22:50.111Z,83.1
2018-08-22T03:24:50.056Z,83.6
2018-08-22T03:26:50.109Z,83.6
2018-08-22T03:28:50.053Z,83.6
2018-08-22T03:30:50.010Z,83.8
2018-08-22T03:32:50.012Z,84.4
2018-08-22T03:34:50.216Z,84.1
2018-08-22T03:36:50.413Z,84.0
2018-08-22T03:38:50.387Z,83.6
2018-08-22T03:40:50.424Z,83.7
2018-08-22T03:42:50.354Z,83.6
2018-08-22T03:44:50.334Z,83.4
2018-08-22T03:46:50.601Z,83.2
2018-08-22T03:48:50.562Z,83.0
2018-08-22T03:50:50.658Z,82.5
2018-08-22T03:52:50.589Z,82.0
2018-08-22T03:54:50.685Z,81.9
2018-08-22T03:56:49.887Z,82.1
2018-08-22T03:58:49.869Z,82.1
2018-08-22T04:00:49.817Z,82.1
2018-08-22T04:02:50.770Z,82.2
2018-08-22T04:04:50.083Z,82.2
2018-08-22T04:06:50.127Z,82.2
2018-08-22T04:08:50.132Z,82.3
2018-08-22T04:10:50.150Z,82.6
2018-08-22T04:12:50.225Z,82.6
2018-08-22T04:14:50.251Z,82.5
2018-08-22T04:16:50.504Z,82.3
2018-08-22T04:18:50.484Z,82.2
2018-08-22T04:20:50.449Z,82.4
2018-08-22T04:22:50.449Z,82.6
2018-08-22T04:24:50.405Z,82.6
2018-08-22T04:26:50.051Z,82.4
2018-08-22T04:28:50.027Z,82.3
2018-08-22T04:30:50.401Z,82.2
2018-08-22T04:32:50.538Z,82.0
2018-08-22T04:34:49.811Z,82.2
2018-08-22T04:36:50.077Z,82.2
2018-08-22T04:38:50.074Z,82.1
2018-08-22T04:40:50.069Z,82.1
2018-08-22T04:42:50.054Z,82.1
2018-08-22T04:44:50.234Z,82.1
2018-08-22T04:46:50.412Z,81.9
2018-08-22T04:48:50.400Z,81.9
2018-08-22T04:50:50.378Z,81.7
2018-08-22T04:52:50.329Z,81.7
2018-08-22T04:54:50.419Z,81.8
2018-08-22T04:56:50.627Z,81.7
2018-08-22T04:58:50.748Z,81.4
2018-08-22T05:00:50.699Z,81.4
2018-08-22T05:02:50.682Z,81.4
2018-08-22T05:04:50.251Z,81.4
2018-08-22T05:06:50.428Z,81.2
2018-08-22T05:08:50.446Z,81.1
2018-08-22T05:10:50.502Z,80.7
2018-08-22T05:12:50.501Z,80.6
2018-08-22T05:14:50.486Z,80.6
2018-08-22T05:16:49.793Z,80.3
2018-08-22T05:18:50.766Z,80.0
2018-08-22T05:20:49.807Z,79.7
2018-08-22T05:22:49.799Z,79.4
2018-08-22T05:24:50.337Z,79.2
2018-08-22T05:26:50.643Z,79.4
2018-08-22T05:28:50.723Z,79.4
2018-08-22T05:30:50.652Z,79.2
2018-08-22T05:32:50.794Z,78.6
2018-08-22T05:34:50.358Z,78.4
2018-08-22T05:36:50.189Z,77.5
2018-08-22T05:38:50.149Z,76.9
2018-08-22T05:40:50.090Z,76.2
2018-08-22T05:42:50.163Z,71
2018-08-22T05:44:50.165Z,71
2018-08-22T05:46:50.344Z,71
2018-08-22T05:48:50.385Z,71
2018-08-22T05:50:50.540Z,71
2018-08-22T05:52:50.595Z,70
2018-08-22T05:54:50.673Z,70
2018-08-22T05:56:50.110Z,70
2018-08-22T05:58:50.082Z,70
2018-08-22T06:00:50.148Z,70
2018-08-22T06:02:50.179Z,70
2018-08-22T06:04:50.563Z,69
2018-08-22T06:06:49.811Z,69
2018-08-22T06:08:49.784Z,69
2018-08-22T06:10:49.803Z,69
2018-08-22T06:12:49.888Z,68
2018-08-22T06:14:49.902Z,68
2018-08-22T06:16:50.582Z,68
2018-08-22T06:18:49.875Z,68
2018-08-22T06:20:50.050Z,68
2018-08-22T06:22:50.014Z,68
2018-08-22T06:24:50.119Z,68
2018-08-22T06:26:50.626Z,66
2018-08-22T06:28:50.598Z,66
2018-08-22T06:30:50.709Z,66
2018-08-22T06:32:50.958Z,66
2018-08-22T06:34:50.524Z,66
2018-08-22T06:36:50.835Z,66
2018-08-22T06:38:49.946Z,66
2018-08-22T06:40:50.053Z,65
2018-08-22T06:42:50.029Z,65
2018-08-22T06:44:50.014Z,65
2018-08-22T06:46:50.242Z,65
2018-08-22T06:48:50.272Z,65
2018-08-22T06:50:50.436Z,65
2018-08-22T06:52:50.428Z,64
2018-08-22T06:54:50.466Z,64
2018-08-22T06:56:50.609Z,64
2018-08-22T06:58:50.765Z,64
2018-08-22T07:00:50.093Z,64
2018-08-22T07:02:50.043Z,64
2018-08-22T07:04:50.322Z,64
2018-08-22T07:06:50.519Z,64
2018-08-22T07:08:50.635Z,64
2018-08-22T07:10:50.619Z,63
2018-08-22T07:12:50.605Z,63
2018-08-22T07:14:50.660Z,63
2018-08-22T07:16:49.800Z,62
2018-08-22T07:18:49.847Z,62
2018-08-22T07:20:50.256Z,62
2018-08-22T07:22:50.245Z,62
2018-08-22T07:24:50.225Z,62
2018-08-22T07:26:50.411Z,62
2018-08-22T07:28:50.401Z,62
2018-08-22T07:30:50.420Z,62
2018-08-22T07:32:50.430Z,62
2018-08-22T07:34:49.807Z,62
2018-08-22T07:36:50.005Z,62
2018-08-22T07:38:49.963Z,62
2018-08-22T07:40:49.998Z,60
2018-08-22T07:42:50.013Z,60
2018-08-22T07:44:50.001Z,60
2018-08-22T07:46:50.125Z,61
2018-08-22T07:48:50.031Z,61
2018-08-22T07:50:50.016Z,60
2018-08-22T07:52:50.335Z,60
2018-08-22T07:54:50.471Z,60
2018-08-22T07:56:49.789Z,60
2018-08-22T07:58:49.988Z,61
2018-08-22T08:00:50.051Z,60
2018-08-22T08:02:50.192Z,60
2018-08-22T08:04:50.797Z,60
2018-08-22T08:06:50.337Z,60
2018-08-22T08:08:50.409Z,60
2018-08-22T08:10:50.739Z,60
2018-08-22T08:12:49.935Z,59
2018-08-22T08:14:49.968Z,59
2018-08-22T08:16:50.367Z,60
2018-08-22T08:18:50.309Z,59
2018-08-22T08:20:50.321Z,59
2018-08-22T08:22:50.358Z,59
2018-08-22T08:24:50.489Z,59
2018-08-22T08:26:50.771Z,57
2018-08-22T08:28:49.821Z,56
2018-08-22T08:30:49.979Z,56
2018-08-22T08:32:50.017Z,57
2018-08-22T08:34:50.422Z,57
2018-08-22T08:36:50.517Z,57
2018-08-22T08:38:50.556Z,56
2018-08-22T08:40:50.773Z,56
2018-08-22T08:42:50.758Z,55
2018-08-22T08:44:49.779Z,55
2018-08-22T08:46:49.979Z,55
2018-08-22T08:48:50.056Z,54
2018-08-22T08:50:50.120Z,54
2018-08-22T08:52:50.166Z,54
2018-08-22T08:54:50.277Z,54
2018-08-22T08:56:50.356Z,54
2018-08-22T08:58:50.361Z,54
2018-08-22T09:00:50.393Z,54
2018-08-22T09:02:50.452Z,54
2018-08-22T09:04:49.945Z,53
2018-08-22T09:06:50.173Z,52
2018-08-22T09:08:50.183Z,52
2018-08-22T09:10:50.972Z,52
2018-08-22T09:12:50.091Z,52
2018-08-22T09:14:50.103Z,53
2018-08-22T09:16:50.284Z,53
2018-08-22T09:18:50.510Z,52
2018-08-22T09:20:50.523Z,51
2018-08-22T09:22:50.637Z,51
2018-08-22T09:24:50.693Z,51
2018-08-22T09:26:49.989Z,51
2018-08-22T09:28:49.986Z,51
2018-08-22T09:30:50.023Z,51
2018-08-22T09:32:50.173Z,51
2018-08-22T09:34:50.451Z,51
2018-08-22T09:36:50.710Z,51
2018-08-22T09:38:50.767Z,51
2018-08-22T09:40:50.736Z,50
2018-08-22T09:42:49.786Z,50
2018-08-22T09:44:49.806Z,50
2018-08-22T09:46:50.842Z,50
2018-08-22T09:48:50.054Z,50
2018-08-22T09:50:50.431Z,49
2018-08-22T09:52:50.535Z,49
2018-08-22T09:54:50.520Z,50
2018-08-22T09:56:50.779Z,49
2018-08-22T09:58:49.860Z,49
2018-08-22T10:00:50.606Z,48
2018-08-22T10:02:50.565Z,49
2018-08-22T10:04:49.885Z,49
2018-08-22T10:06:50.917Z,49
2018-08-22T10:08:50.393Z,49
2018-08-22T10:10:50.411Z,49
2018-08-22T10:12:50.416Z,49
2018-08-22T10:14:50.776Z,49
2018-08-22T10:16:49.979Z,48
2018-08-22T10:18:49.979Z,48
2018-08-22T10:20:50.008Z,48
2018-08-22T10:22:49.996Z,48
2018-08-22T10:24:50.000Z,46
2018-08-22T10:26:50.082Z,46
2018-08-22T10:28:50.105Z,46
2018-08-22T10:30:50.079Z,47
2018-08-22T10:32:51.118Z,46
2018-08-22T10:34:50.575Z,46
2018-08-22T10:36:49.785Z,46
2018-08-22T10:38:49.942Z,45
2018-08-22T10:40:49.885Z,44
2018-08-22T10:42:49.983Z,44
2018-08-22T10:44:50.003Z,44
2018-08-22T10:46:50.347Z,43
2018-08-22T10:48:50.491Z,44
2018-08-22T10:50:50.477Z,44
2018-08-22T10:52:50.473Z,43
2018-08-22T10:54:50.603Z,43
2018-08-22T10:56:49.851Z,44
2018-08-22T10:58:49.923Z,43
2018-08-22T11:00:50.007Z,42
2018-08-22T11:02:49.963Z,42
2018-08-22T11:04:50.373Z,42
2018-08-22T11:06:50.451Z,40
2018-08-22T11:08:50.511Z,40
2018-08-22T11:10:50.460Z,40
2018-08-22T11:12:50.596Z,39
2018-08-22T11:14:50.599Z,39
2018-08-22T11:16:50.751Z,40
2018-08-22T11:18:49.793Z,40
2018-08-22T11:20:50.753Z,40
2018-08-22T11:22:49.879Z,40
2018-08-22T11:24:49.841Z,40
2018-08-22T11:26:50.126Z,40
2018-08-22T11:28:50.082Z,40
2018-08-22T11:30:50.057Z,40
2018-08-22T11:32:50.471Z,40
2018-08-22T11:34:49.968Z,40
2018-08-22T11:36:50.010Z,39
2018-08-22T11:38:50.067Z,39
2018-08-22T11:40:50.277Z,39
2018-08-22T11:42:50.274Z,39
2018-08-22T11:44:50.250Z,40
2018-08-22T11:46:51.216Z,39
2018-08-22T11:48:50.367Z,39
2018-08-22T11:50:50.375Z,39
2018-08-22T11:52:50.386Z,38
2018-08-22T11:54:50.344Z,38
2018-08-22T11:56:50.569Z,39
2018-08-22T11:58:50.633Z,38
2018-08-22T12:00:50.641Z,38
2018-08-22T12:02:50.735Z,38
2018-08-22T12:04:50.036Z,38
2018-08-22T12:06:50.113Z,38
2018-08-22T12:08:50.135Z,38
2018-08-22T12:10:50.277Z,38
2018-08-22T12:12:50.251Z,38
2018-08-22T12:14:50.289Z,36
2018-08-22T12:16:50.560Z,36
2018-08-22T12:18:50.717Z,37
2018-08-22T12:20:49.795Z,37
2018-08-22T12:22:50.819Z,37
2018-08-22T12:24:50.768Z,36
2018-08-22T12:26:50.079Z,37
2018-08-22T12:28:50.055Z,37
2018-08-22T12:30:50.256Z,37
2018-08-22T12:32:50.235Z,37
2018-08-22T12:34:50.656Z,37
2018-08-22T12:36:49.811Z,37
2018-08-22T12:38:49.895Z,37
2018-08-22T12:40:49.978Z,37
2018-08-22T12:42:49.999Z,37
2018-08-22T12:44:49.946Z,37
2018-08-22T12:46:50.262Z,37
2018-08-22T12:48:50.260Z,37
2018-08-22T12:50:50.235Z,37
2018-08-22T12:52:50.258Z,37
2018-08-22T12:54:50.248Z,36
2018-08-22T12:56:50.414Z,36
2018-08-22T12:58:50.416Z,36
2018-08-22T13:00:50.529Z,36
2018-08-22T13:02:50.466Z,36
2018-08-22T13:04:50.021Z,36
2018-08-22T13:06:50.727Z,36
2018-08-22T13:08:50.710Z,36
2018-08-22T13:10:50.809Z,36
2018-08-22T13:12:49.892Z,36
2018-08-22T13:14:49.998Z,36
2018-08-22T13:16:50.307Z,36
2018-08-22T13:18:49.956Z,36
2018-08-22T13:20:49.957Z,36
2018-08-22T13:22:49.923Z,36
2018-08-22T13:24:50.621Z,36
2018-08-22T13:26:49.829Z,36
2018-08-22T13:28:49.914Z,34
2018-08-22T13:30:50.022Z,34
2018-08-22T13:32:50.042Z,34
2018-08-22T13:34:50.337Z,34
2018-08-22T13:36:50.528Z,34
2018-08-22T13:38:50.537Z,33
2018-08-22T13:40:50.491Z,33
2018-08-22T13:42:50.534Z,34
2018-08-22T13:44:50.502Z,34
2018-08-22T13:46:50.765Z,34
2018-08-22T13:48:49.818Z,34
2018-08-22T13:50:50.306Z,34
2018-08-22T13:52:50.355Z,34
2018-08-22T13:54:50.625Z,34
2018-08-22T13:56:50.921Z,34
2018-08-22T13:58:49.957Z,34
2018-08-22T14:00:50.102Z,34
2018-08-22T14:02:50.131Z,34
2018-08-22T14:04:50.377Z,34
2018-08-22T14:06:49.844Z,34
2018-08-22T14:08:50.096Z,33
2018-08-22T14:10:50.296Z,34
2018-08-22T14:12:50.429Z,34
2018-08-22T14:14:50.593Z,33
2018-08-22T14:16:50.010Z,33
2018-08-22T14:18:50.327Z,32
2018-08-22T14:20:50.486Z,32
2018-08-22T14:22:50.655Z,32
2018-08-22T14:24:50.919Z,32
2018-08-22T14:26:50.335Z,32
2018-08-22T14:28:50.502Z,32
2018-08-22T14:30:50.755Z,33
2018-08-22T14:32:50.903Z,32
2018-08-22T14:34:50.522Z,32
2018-08-22T14:36:50.924Z,30
2018-08-22T14:38:50.146Z,31
2018-08-22T14:40:50.351Z,31
2018-08-22T14:42:50.585Z,31
2018-08-22T14:44:51.039Z,31
2018-08-22T14:46:50.521Z,30
2018-08-22T14:48:50.797Z,31
2018-08-22T14:50:50.895Z,31
2018-08-22T14:52:50.103Z,31
2018-08-22T14:54:50.251Z,31
2018-08-22T14:56:50.558Z,30
2018-08-22T14:58:50.787Z,30
2018-08-22T15:00:50.024Z,30
2018-08-22T15:02:53.183Z,29
2018-08-22T15:04:50.838Z,30
2018-08-22T15:06:50.235Z,30
2018-08-22T15:08:50.665Z,31
2018-08-22T15:10:50.512Z,31
2018-08-22T15:12:51.498Z,31
2018-08-22T15:14:50.805Z,31
2018-08-22T15:16:50.217Z,30
2018-08-22T15:18:50.346Z,30
2018-08-22T15:20:50.668Z,31
2018-08-22T15:22:50.892Z,31
2018-08-22T15:24:50.670Z,31
2018-08-22T15:26:50.189Z,31
2018-08-22T15:28:50.252Z,30
2018-08-22T15:30:50.479Z,30
2018-08-22T15:32:50.617Z,31
2018-08-22T15:34:50.118Z,30
2018-08-22T15:36:50.390Z,30
2018-08-22T15:38:50.478Z,30
2018-08-22T15:40:50.961Z,31
2018-08-22T15:42:50.235Z,31
2018-08-22T15:44:50.405Z,31
2018-08-22T15:46:50.726Z,31
2018-08-22T15:48:50.815Z,31
2018-08-22T15:50:50.017Z,31
2018-08-22T15:52:50.273Z,31
2018-08-22T15:54:50.442Z,30
2018-08-22T15:56:50.766Z,30
2018-08-22T15:58:50.492Z,31
2018-08-22T16:00:50.759Z,31
2018-08-22T16:02:50.924Z,30
2018-08-22T16:04:50.546Z,30
2018-08-22T16:06:50.018Z,30
2018-08-22T16:08:51.048Z,30
2018-08-22T16:10:50.216Z,30
2018-08-22T16:12:50.497Z,30
2018-08-22T16:14:50.670Z,31
2018-08-22T16:16:50.134Z,31
2018-08-22T16:18:50.240Z,31
2018-08-22T16:20:50.367Z,31
2018-08-22T16:22:50.338Z,31
2018-08-22T16:24:50.335Z,31
2018-08-22T16:26:50.618Z,31
2018-08-22T16:28:50.617Z,30
2018-08-22T16:30:58.084Z,30
2018-08-22T16:32:50.071Z,30
2018-08-22T16:34:50.439Z,30
2018-08-22T16:36:50.588Z,30
2018-08-22T16:38:50.562Z,30
2018-08-22T16:40:50.571Z,30
2018-08-22T16:42:50.532Z,30
2018-08-22T16:44:50.501Z,31
2018-08-22T16:46:50.652Z,31
2018-08-22T16:48:50.596Z,31
2018-08-22T16:50:50.516Z,32
2018-08-22T16:52:50.535Z,32
2018-08-22T16:54:50.463Z,32
2018-08-22T16:56:50.680Z,32
2018-08-22T16:58:50.816Z,32
2018-08-22T17:00:50.752Z,32
2018-08-22T17:02:50.606Z,32
2018-08-22T17:04:50.040Z,32
2018-08-22T17:06:50.221Z,32
2018-08-22T17:08:50.246Z,32
2018-08-22T17:10:50.194Z,32
2018-08-22T17:12:50.294Z,32
2018-08-22T17:14:50.267Z,32
2018-08-22T17:16:50.498Z,33
2018-08-22T17:18:50.590Z,33
2018-08-22T17:20:50.527Z,33
2018-08-22T17:22:50.652Z,33
2018-08-22T17:24:50.628Z,33
2018-08-22T17:26:49.878Z,33
2018-08-22T17:28:49.960Z,33
2018-08-22T17:30:50.081Z,33
2018-08-22T17:32:50.051Z,33
2018-08-22T17:34:50.328Z,33
2018-08-22T17:36:50.460Z,33
2018-08-22T17:38:50.475Z,33
2018-08-22T17:40:50.442Z,33
2018-08-22T17:42:50.560Z,33
2018-08-22T17:44:50.564Z,33
2018-08-22T17:46:49.880Z,34
2018-08-22T17:48:49.960Z,34
2018-08-22T17:50:50.009Z,34
2018-08-22T17:52:49.993Z,34
2018-08-22T17:54:50.011Z,34
2018-08-22T17:56:50.197Z,34
2018-08-22T17:58:50.336Z,34
2018-08-22T18:00:50.337Z,32.3
2018-08-22T18:02:50.374Z,32.9
2018-08-22T18:04:50.595Z,32.6
2018-08-22T18:06:50.767Z,34
2018-08-22T18:08:49.856Z,33.0
2018-08-22T18:10:49.901Z,33.2
2018-08-22T18:12:49.882Z,33.6
2018-08-22T18:14:49.889Z,34.1
2018-08-22T18:16:50.107Z,35.1
2018-08-22T18:18:50.032Z,34.8
2018-08-22T18:20:49.968Z,35.2
2018-08-22T18:22:49.958Z,35.0
2018-08-22T18:24:49.964Z,35.8
2018-08-22T18:26:50.196Z,35.4
2018-08-22T18:28:50.161Z,36.1
2018-08-22T18:30:50.220Z,36.2
2018-08-22T18:32:50.222Z,36.5
2018-08-22T18:34:50.811Z,37.2
2018-08-22T18:36:50.029Z,37.0
2018-08-22T18:38:50.007Z,37.8
2018-08-22T18:40:50.008Z,37.9
2018-08-22T18:42:49.975Z,38.4
2018-08-22T18:44:50.845Z,38.3
2018-08-22T18:46:50.186Z,38.6
2018-08-22T18:48:50.365Z,38.9
2018-08-22T18:50:50.417Z,39.3
2018-08-22T18:52:50.477Z,39.8
2018-08-22T18:54:50.412Z,40.2
2018-08-22T18:56:50.591Z,39.9
2018-08-22T18:58:50.677Z,40.5
2018-08-22T19:00:50.626Z,40.3
2018-08-22T19:02:50.666Z,40.5
2018-08-22T19:04:49.975Z,41.0
2018-08-22T19:06:50.231Z,41.4
2018-08-22T19:08:50.161Z,41.7
2018-08-22T19:10:50.117Z,42.2
2018-08-22T19:12:50.205Z,41.9
2018-08-22T19:14:50.179Z,41.7
2018-08-22T19:16:50.415Z,42.5
2018-08-22T19:18:50.310Z,43.0
2018-08-22T19:20:50.332Z,42.8
2018-08-22T19:22:50.331Z,43.1
2018-08-22T19:24:50.570Z,43.2
2018-08-22T19:26:49.909Z,43.7
2018-08-22T19:28:49.946Z,43.8
2018-08-22T19:30:50.050Z,43.8
2018-08-22T19:32:50.072Z,43.8
2018-08-22T19:34:50.493Z,43.8
2018-08-22T19:36:50.713Z,44.3
2018-08-22T19:38:50.675Z,44.7
2018-08-22T19:40:50.615Z,44.7
2018-08-22T19:42:50.602Z,44.6
2018-08-22T19:44:50.517Z,44.8
2018-08-22T19:46:50.750Z,45.2
2018-08-22T19:48:50.995Z,45.6
2018-08-22T19:50:49.939Z,45.9
2018-08-22T19:52:50.067Z,46.3
2018-08-22T19:54:50.072Z,46.9
2018-08-22T19:56:50.129Z,46.7
2018-08-22T19:58:50.110Z,46.9
2018-08-22T20:00:50.116Z,47.2
2018-08-22T20:02:50.084Z,47.1
2018-08-22T20:04:50.312Z,47.1
2018-08-22T20:06:50.420Z,47.3
2018-08-22T20:08:50.412Z,47.5
2018-08-22T20:10:50.435Z,47.6
2018-08-22T20:12:50.393Z,47.4
2018-08-22T20:14:50.344Z,47.6
2018-08-22T20:16:50.855Z,44
2018-08-22T20:18:49.969Z,44
2018-08-22T20:20:49.953Z,44
2018-08-22T20:22:50.091Z,44
2018-08-22T20:24:50.222Z,45
2018-08-22T20:26:50.356Z,45
2018-08-22T20:28:50.301Z,45
2018-08-22T20:30:50.294Z,45
2018-08-22T20:32:50.232Z,45
2018-08-22T20:34:50.552Z,45
2018-08-22T20:36:50.593Z,45
2018-08-22T20:38:50.589Z,45
2018-08-22T20:40:50.605Z,45
2018-08-22T20:42:51.096Z,45
2018-08-22T20:44:50.129Z,45
2018-08-22T20:46:50.304Z,45
2018-08-22T20:48:50.325Z,45
2018-08-22T20:50:50.337Z,45
2018-08-22T20:52:50.277Z,46
2018-08-22T20:54:50.294Z,46
2018-08-22T20:56:50.446Z,46
2018-08-22T20:58:50.373Z,46
2018-08-22T21:00:50.446Z,51.7
2018-08-22T21:02:50.498Z,46
2018-08-22T21:04:49.843Z,52.2
2018-08-22T21:06:50.062Z,48
2018-08-22T21:08:50.082Z,48
2018-08-22T21:10:50.054Z,53.3
2018-08-22T21:12:50.020Z,53.3
2018-08-22T21:14:50.732Z,54.1
2018-08-22T21:16:49.966Z,54.3
2018-08-22T21:18:49.969Z,54.3
2018-08-22T21:20:50.023Z,54.7
2018-08-22T21:22:49.993Z,55.1
2018-08-22T21:24:50.260Z,55.3
2018-08-22T21:26:50.493Z,55.4
2018-08-22T21:28:50.422Z,55.8
2018-08-22T21:30:50.556Z,55.7
2018-08-22T21:32:50.576Z,55.9
2018-08-22T21:34:50.291Z,56.0
2018-08-22T21:36:50.399Z,56.0
2018-08-22T21:38:50.431Z,56.3
2018-08-22T21:40:50.469Z,56.3
2018-08-22T21:42:50.434Z,56.2
2018-08-22T21:44:50.471Z,56.6
2018-08-22T21:46:50.596Z,56.8
2018-08-22T21:48:50.582Z,56.9
2018-08-22T21:50:50.714Z,57.1
2018-08-22T21:52:50.655Z,57.2
2018-08-22T21:54:50.979Z,57.4
2018-08-22T21:56:50.256Z,57.7
2018-08-22T21:58:50.237Z,57.9
2018-08-22T22:00:50.237Z,58.0
2018-08-22T22:02:50.268Z,58.0
2018-08-22T22:04:50.632Z,58.1
2018-08-22T22:06:49.899Z,58.3
2018-08-22T22:08:49.828Z,58.5
2018-08-22T22:10:49.822Z,58.7
2018-08-22T22:12:49.817Z,58.7
2018-08-22T22:14:49.806Z,58.8
2018-08-22T22:16:50.055Z,58.9
2018-08-22T22:18:49.997Z,59.5
2018-08-22T22:20:50.028Z,59.6
2018-08-22T22:22:50.006Z,60.0
2018-08-22T22:24:50.092Z,60.0
2018-08-22T22:26:50.155Z,60.1
2018-08-22T22:28:50.193Z,60.4
2018-08-22T22:30:50.200Z,60.5
2018-08-22T22:32:50.136Z,61.1
2018-08-22T22:34:50.414Z,60.1
2018-08-22T22:36:50.517Z,60.0
2018-08-22T22:38:50.514Z,59.5
2018-08-22T22:40:50.473Z,59.8
2018-08-22T22:42:50.514Z,59.9
2018-08-22T22:44:50.529Z,59.9
2018-08-22T22:46:50.766Z,60.4
2018-08-22T22:48:49.797Z,60.1
2018-08-22T22:50:50.071Z,60.1
2018-08-22T22:52:50.104Z,60.5
2018-08-22T22:54:50.056Z,60.8
2018-08-22T22:56:50.185Z,60.3
2018-08-22T22:58:50.210Z,60.3
2018-08-22T23:00:50.138Z,60.6
2018-08-22T23:02:50.081Z,60.7
2018-08-22T23:04:50.369Z,60.9
2018-08-22T23:06:50.514Z,60.9
2018-08-22T23:08:50.532Z,61.4
2018-08-22T23:10:50.577Z,61.2
2018-08-22T23:12:50.576Z,60.9
2018-08-22T23:14:50.562Z,60.9
2018-08-22T23:16:50.783Z,62.2
2018-08-22T23:18:49.909Z,63.0
2018-08-22T23:20:49.921Z,63.3
2018-08-22T23:22:49.937Z,63.7
2018-08-22T23:24:49.990Z,63.6
2018-08-22T23:26:50.119Z,63.8
2018-08-22T23:28:50.160Z,63.9
2018-08-22T23:30:50.158Z,63.9
2018-08-22T23:32:50.160Z,64.1
2018-08-22T23:34:50.489Z,64.3
2018-08-22T23:36:49.802Z,64.6
2018-08-22T23:38:50.766Z,64.4
2018-08-22T23:40:49.787Z,64.8
2018-08-22T23:42:50.781Z,65.1
2018-08-22T23:44:50.740Z,64.9
2018-08-22T23:46:49.958Z,64.8
2018-08-22T23:48:49.947Z,65.0
2018-08-22T23:50:50.157Z,65.2
2018-08-22T23:52:50.147Z,65.2
2018-08-22T23:54:50.770Z,65.6
2018-08-22T23:56:49.960Z,65.3
2018-08-22T23:58:49.997Z,65.6
